createdAt,value
2023-03-22T00:02:26.426Z,16.30
2023-03-22T00:04:55.224Z,15.90
2023-03-22T00:07:23.541Z,16.50
2023-03-22T00:09:52.188Z,17.10
2023-03-22T00:12:20.636Z,16.60
2023-03-22T00:14:49.675Z,17.90
2023-03-22T00:17:18.655Z,16.60
2023-03-22T00:19:47.690Z,16.20
2023-03-22T00:22:16.442Z,17.00
2023-03-22T00:24:44.901Z,17.30
2023-03-22T00:27:13.394Z,16.90
2023-03-22T00:29:42.320Z,16.30
2023-03-22T00:32:10.668Z,16.30
2023-03-22T00:34:38.929Z,17.70
2023-03-22T00:37:08.238Z,16.60
2023-03-22T00:39:36.559Z,16.00
2023-03-22T00:42:06.890Z,16.80
2023-03-22T00:44:35.108Z,17.40
2023-03-22T00:47:03.816Z,17.30
2023-03-22T00:49:35.393Z,16.80
2023-03-22T00:52:03.900Z,17.40
2023-03-22T00:54:32.190Z,17.50
2023-03-22T00:57:00.715Z,18.10
2023-03-22T00:59:29.024Z,17.30
2023-03-22T01:01:59.177Z,17.10
2023-03-22T01:04:29.673Z,17.50
2023-03-22T01:07:02.328Z,17.40
2023-03-22T01:09:33.955Z,16.80
2023-03-22T01:12:03.218Z,17.40
2023-03-22T01:14:32.112Z,17.10
2023-03-22T01:17:00.799Z,16.50
2023-03-22T01:19:32.182Z,17.00
2023-03-22T01:22:00.538Z,17.00
2023-03-22T01:24:28.705Z,16.60
2023-03-22T01:26:57.423Z,17.70
2023-03-22T01:29:29.634Z,17.90
2023-03-22T01:31:58.011Z,16.50
2023-03-22T01:34:27.108Z,16.50
2023-03-22T01:36:55.481Z,15.70
2023-03-22T01:39:23.963Z,16.20
2023-03-22T01:41:52.563Z,15.70
2023-03-22T01:44:23.378Z,14.80
2023-03-22T01:46:52.272Z,14.40
2023-03-22T01:49:35.294Z,15.20
2023-03-22T01:52:11.966Z,14.90
2023-03-22T01:54:52.934Z,15.20
2023-03-22T01:57:21.843Z,14.70
2023-03-22T01:59:54.027Z,14.10
2023-03-22T02:02:24.880Z,15.10
2023-03-22T02:04:58.359Z,14.50
2023-03-22T02:07:27.447Z,14.60
2023-03-22T02:09:56.024Z,14.90
2023-03-22T02:12:33.096Z,13.90
2023-03-22T02:15:13.512Z,13.70
2023-03-22T02:18:11.575Z,13.90
2023-03-22T02:21:21.697Z,13.90
2023-03-22T02:24:18.678Z,13.50
2023-03-22T02:27:00.024Z,14.10
2023-03-22T02:30:02.473Z,14.00
2023-03-22T02:32:55.241Z,13.70
2023-03-22T02:35:57.708Z,13.80
2023-03-22T02:38:58.118Z,13.80
2023-03-22T02:41:38.919Z,14.90
2023-03-22T02:44:35.716Z,13.70
2023-03-22T02:47:12.406Z,13.50
2023-03-22T02:49:42.880Z,14.50
2023-03-22T02:52:30.544Z,15.00
2023-03-22T02:55:11.189Z,13.90
2023-03-22T02:57:50.685Z,14.80
2023-03-22T03:00:20.065Z,14.80
2023-03-22T03:03:00.312Z,15.30
2023-03-22T03:05:32.564Z,14.70
2023-03-22T03:08:02.942Z,14.70
2023-03-22T03:10:31.500Z,15.60
2023-03-22T03:13:00.091Z,16.40
2023-03-22T03:15:29.145Z,16.80
2023-03-22T03:18:36.918Z,14.70
2023-03-22T03:21:17.459Z,15.30
2023-03-22T03:24:07.191Z,15.70
2023-03-22T03:26:53.901Z,15.20
2023-03-22T03:29:22.122Z,14.80
2023-03-22T03:32:13.574Z,15.30
2023-03-22T03:34:58.146Z,15.00
2023-03-22T03:37:34.243Z,15.00
2023-03-22T03:40:16.801Z,14.80
2023-03-22T03:42:50.801Z,15.50
2023-03-22T03:45:22.295Z,15.30
2023-03-22T03:47:57.286Z,14.70
2023-03-22T03:50:27.221Z,14.80
2023-03-22T03:55:24.654Z,14.20
2023-03-22T03:57:52.827Z,14.50
2023-03-22T04:00:21.097Z,14.50
2023-03-22T04:02:49.627Z,15.20
2023-03-22T04:05:18.294Z,14.80
2023-03-22T04:07:46.615Z,15.30
2023-03-22T04:10:14.920Z,14.40
2023-03-22T04:12:43.111Z,14.20
2023-03-22T04:15:12.625Z,15.00
2023-03-22T04:17:41.498Z,14.20
2023-03-22T04:20:11.183Z,14.60
2023-03-22T04:22:41.449Z,14.00
2023-03-22T04:25:13.097Z,14.10
2023-03-22T04:27:42.873Z,14.10
2023-03-22T04:32:41.261Z,14.70
2023-03-22T04:35:09.721Z,14.50
2023-03-22T04:37:38.007Z,15.60
2023-03-22T04:40:08.401Z,14.50
2023-03-22T04:42:36.654Z,13.30
2023-03-22T04:45:06.116Z,14.40
2023-03-22T04:47:34.458Z,14.40
2023-03-22T04:50:03.192Z,14.60
2023-03-22T04:52:31.393Z,13.90
2023-03-22T04:54:59.870Z,14.50
2023-03-22T04:57:28.292Z,14.40
2023-03-22T04:59:56.541Z,14.60
2023-03-22T05:02:24.736Z,14.00
2023-03-22T05:04:53.095Z,14.10
2023-03-22T05:07:21.758Z,14.40
2023-03-22T05:09:49.968Z,15.40
2023-03-22T05:12:18.470Z,14.60
2023-03-22T05:14:46.707Z,15.80
2023-03-22T05:17:14.992Z,15.20
2023-03-22T05:19:44.215Z,16.20
2023-03-22T05:22:13.443Z,17.10
2023-03-22T05:24:41.844Z,15.90
2023-03-22T05:27:11.177Z,16.30
2023-03-22T05:29:39.367Z,16.20
2023-03-22T05:32:07.614Z,15.90
2023-03-22T05:34:37.331Z,17.20
2023-03-22T05:37:05.505Z,17.00
2023-03-22T05:39:33.986Z,17.90
2023-03-22T05:42:02.273Z,17.30
2023-03-22T05:44:30.470Z,17.40
2023-03-22T05:46:59.230Z,17.60
2023-03-22T05:49:27.620Z,18.20
2023-03-22T05:51:56.138Z,17.90
2023-03-22T05:54:24.508Z,17.10
2023-03-22T05:56:55.263Z,18.10
2023-03-22T05:59:23.937Z,18.00
2023-03-22T06:01:52.844Z,20.00
2023-03-22T06:04:21.295Z,19.50
2023-03-22T06:06:50.651Z,19.60
2023-03-22T06:09:19.072Z,18.50
2023-03-22T06:11:47.406Z,19.10
2023-03-22T06:14:16.166Z,18.70
2023-03-22T06:16:44.455Z,19.20
2023-03-22T06:19:13.087Z,18.30
2023-03-22T06:21:41.415Z,20.40
2023-03-22T06:24:09.909Z,19.60
2023-03-22T06:26:38.149Z,19.60
2023-03-22T06:29:06.717Z,19.60
2023-03-22T06:31:34.989Z,19.90
2023-03-22T06:34:04.366Z,19.30
2023-03-22T06:36:33.070Z,19.10
2023-03-22T06:39:02.966Z,18.60
2023-03-22T06:43:59.637Z,18.80
2023-03-22T06:46:28.063Z,17.90
2023-03-22T06:48:56.364Z,18.80
2023-03-22T06:51:24.900Z,19.20
2023-03-22T06:53:53.197Z,18.80
2023-03-22T06:56:21.477Z,19.20
2023-03-22T06:58:52.060Z,18.00
2023-03-22T07:01:23.418Z,19.10
2023-03-22T07:03:52.016Z,18.10
2023-03-22T07:06:20.387Z,18.60
2023-03-22T07:08:50.746Z,18.70
2023-03-22T07:11:20.532Z,19.00
2023-03-22T07:13:49.561Z,18.80
2023-03-22T07:16:19.917Z,19.20
2023-03-22T07:18:48.512Z,19.20
2023-03-22T07:21:16.710Z,19.20
2023-03-22T07:23:44.929Z,19.40
2023-03-22T07:26:13.716Z,20.00
2023-03-22T07:28:44.865Z,19.80
2023-03-22T07:31:14.487Z,21.90
2023-03-22T07:33:43.155Z,22.00
2023-03-22T07:36:11.681Z,20.60
2023-03-22T07:38:40.738Z,19.60
2023-03-22T07:41:09.040Z,20.60
2023-03-22T07:43:52.297Z,20.80
2023-03-22T07:46:21.019Z,18.80
2023-03-22T07:48:49.826Z,19.60
2023-03-22T07:51:19.377Z,21.00
2023-03-22T07:53:47.609Z,23.80
2023-03-22T07:56:15.916Z,23.00
2023-03-22T07:58:44.496Z,20.40
2023-03-22T08:01:12.877Z,19.90
2023-03-22T08:03:41.791Z,19.80
2023-03-22T08:06:10.463Z,17.80
2023-03-22T08:08:39.245Z,20.00
2023-03-22T08:11:08.250Z,18.80
2023-03-22T08:13:36.599Z,18.30
2023-03-22T08:16:05.944Z,20.20
2023-03-22T08:18:34.504Z,19.60
2023-03-22T08:21:02.771Z,18.50
2023-03-22T08:23:41.477Z,20.40
2023-03-22T08:26:11.363Z,20.30
2023-03-22T08:28:39.649Z,20.10
2023-03-22T08:31:18.732Z,22.80
2023-03-22T08:33:47.738Z,23.30
2023-03-22T08:36:19.062Z,18.40
2023-03-22T08:38:48.556Z,23.30
2023-03-22T08:41:16.838Z,21.40
2023-03-22T08:43:45.069Z,17.20
2023-03-22T08:46:13.393Z,17.10
2023-03-22T08:48:41.855Z,17.40
2023-03-22T08:51:10.901Z,16.90
2023-03-22T08:53:39.129Z,16.80
2023-03-22T08:56:08.028Z,17.50
2023-03-22T08:58:36.650Z,17.60
2023-03-22T09:01:05.166Z,17.60
2023-03-22T09:03:33.453Z,18.10
2023-03-22T09:06:02.149Z,17.80
2023-03-22T09:08:30.822Z,17.60
2023-03-22T09:10:59.168Z,18.90
2023-03-22T09:13:27.596Z,16.50
2023-03-22T09:15:55.833Z,17.90
2023-03-22T09:18:25.194Z,17.10
2023-03-22T09:20:53.542Z,16.50
2023-03-22T09:23:21.788Z,17.80
2023-03-22T09:25:50.014Z,17.90
2023-03-22T09:28:19.398Z,17.60
2023-03-22T09:30:47.791Z,17.60
2023-03-22T09:33:15.990Z,16.30
2023-03-22T09:35:45.035Z,17.30
2023-03-22T09:38:14.002Z,16.20
2023-03-22T09:41:01.058Z,19.10
2023-03-22T09:43:33.713Z,17.60
2023-03-22T09:46:04.084Z,17.60
2023-03-22T09:48:37.414Z,18.10
2023-03-22T09:51:14.074Z,17.10
2023-03-22T09:53:42.310Z,18.00
2023-03-22T09:56:23.267Z,17.90
2023-03-22T09:59:07.594Z,18.60
2023-03-22T10:01:37.757Z,18.00
2023-03-22T10:04:44.180Z,17.00
2023-03-22T10:07:22.452Z,23.90
2023-03-22T10:09:56.810Z,26.50
2023-03-22T10:13:02.332Z,17.50
2023-03-22T10:15:42.797Z,16.00
2023-03-22T10:18:25.059Z,15.00
2023-03-22T10:21:09.681Z,15.50
2023-03-22T10:23:47.889Z,16.40
2023-03-22T10:26:30.686Z,15.30
2023-03-22T10:29:12.638Z,14.50
2023-03-22T10:31:44.920Z,15.40
2023-03-22T10:34:23.682Z,14.60
2023-03-22T10:36:53.276Z,14.80
2023-03-22T10:39:38.414Z,15.10
2023-03-22T10:42:21.495Z,14.40
2023-03-22T10:44:51.170Z,15.10
2023-03-22T10:47:34.442Z,16.00
2023-03-22T10:50:05.759Z,14.20
2023-03-22T10:52:41.844Z,14.50
2023-03-22T10:55:12.764Z,17.70
2023-03-22T10:57:46.461Z,22.30
2023-03-22T11:00:17.830Z,16.70
2023-03-22T11:02:52.068Z,15.30
2023-03-22T11:05:30.308Z,15.80
2023-03-22T11:07:59.195Z,16.30
2023-03-22T11:10:32.971Z,13.70
2023-03-22T11:13:07.548Z,12.10
2023-03-22T11:15:42.113Z,14.50
2023-03-22T11:18:16.596Z,14.00
2023-03-22T11:21:16.231Z,14.60
2023-03-22T11:23:55.628Z,13.10
2023-03-22T11:26:30.505Z,13.70
2023-03-22T11:29:08.050Z,12.70
2023-03-22T11:32:01.027Z,12.30
2023-03-22T11:34:31.848Z,13.80
2023-03-22T11:37:01.368Z,12.00
2023-03-22T11:39:30.359Z,12.20
2023-03-22T11:42:04.434Z,12.00
2023-03-22T11:44:35.645Z,11.40
2023-03-22T11:47:08.000Z,11.30
2023-03-22T11:49:51.080Z,12.60
2023-03-22T11:52:23.471Z,10.80
2023-03-22T11:54:54.365Z,10.90
2023-03-22T11:57:29.988Z,11.40
2023-03-22T12:00:12.328Z,11.20
2023-03-22T12:02:55.070Z,10.70
2023-03-22T12:05:45.076Z,10.80
2023-03-22T12:10:49.399Z,10.30
2023-03-22T12:13:48.812Z,10.50
2023-03-22T12:16:25.097Z,10.30
2023-03-22T12:19:38.691Z,9.60
2023-03-22T12:22:16.271Z,11.40
2023-03-22T12:24:45.519Z,10.90
2023-03-22T12:27:37.669Z,10.60
2023-03-22T12:30:12.561Z,11.20
2023-03-22T12:32:44.830Z,10.20
2023-03-22T12:35:22.470Z,10.60
2023-03-22T12:37:54.420Z,10.20
2023-03-22T12:40:32.374Z,10.60
2023-03-22T12:43:34.966Z,10.70
2023-03-22T12:46:05.550Z,12.70
2023-03-22T12:48:47.532Z,16.60
2023-03-22T12:51:16.067Z,20.00
2023-03-22T12:54:05.587Z,13.70
2023-03-22T12:56:41.341Z,10.80
2023-03-22T12:59:18.652Z,12.60
2023-03-22T13:01:53.949Z,8.90
2023-03-22T13:04:37.911Z,13.80
2023-03-22T13:07:14.221Z,11.00
2023-03-22T13:09:51.430Z,10.20
2023-03-22T13:12:19.601Z,9.30
2023-03-22T13:14:51.180Z,12.30
2023-03-22T13:17:22.606Z,11.20
2023-03-22T13:20:07.005Z,14.40
2023-03-22T13:22:38.113Z,10.60
2023-03-22T13:25:23.084Z,10.10
2023-03-22T13:28:03.734Z,9.80
2023-03-22T13:30:33.226Z,9.50
2023-03-22T13:33:11.459Z,9.20
2023-03-22T13:35:55.221Z,9.70
2023-03-22T13:38:29.834Z,9.40
2023-03-22T13:41:15.316Z,8.80
2023-03-22T13:43:43.486Z,12.60
2023-03-22T13:46:18.048Z,12.70
2023-03-22T13:48:50.868Z,8.70
2023-03-22T13:51:23.072Z,9.30
2023-03-22T13:54:10.209Z,12.00
2023-03-22T13:56:42.216Z,10.10
2023-03-22T13:59:27.401Z,10.40
2023-03-22T14:02:16.499Z,8.60
2023-03-22T14:04:56.680Z,9.80
2023-03-22T14:07:35.062Z,8.90
2023-03-22T14:10:12.989Z,9.30
2023-03-22T14:13:05.016Z,9.10
2023-03-22T14:15:38.959Z,10.30
2023-03-22T14:18:16.017Z,9.50
2023-03-22T14:20:44.869Z,10.40
